Terminal Aerodrome Forecast
Issued by NWS

Home | Current Version | Previous Version | Text Only | Print | Product List | Glossary On
Versions: 1 2 3 4 5 6 7 8 9 10 11 12 13 14 15 16 17 18 19 20 21 22 23 24 25 26 27 28 29
000
FTUS43 KDLH 281723
TAFHIB
TAF
KHIB 281723Z 2818/2918 VRB04KT P6SM -DZ VCSH OVC007
      TEMPO 2818/2821 2SM -DZ BR OVC004
     FM282100 VRB04KT 6SM BR VCSH OVC010
     FM290300 VRB02KT 1SM -DZ BR VCSH OVC003
     FM291200 29010KT P6SM BKN006 OVC018
     FM291600 30012G20KT P6SM BKN022=

USA.gov is the U.S. government's official web portal to all federal, state and local government web resources and services.